Time;durP1;ratioP1;P1;durP2;ratioP2;P2;SDS_P1;SDS_P2;PMS_P1;PMS_P2;Temp;Humidity;BMP_temperature;BMP_pressure;BME280_temperature;BME280_humidity;BME280_pressure;Samples;Min_cycle;Max_cycle;Signal;HPM_P1;HPM_P2
2021/03/10 00:00:00;;;;;;;22.55;16.10;;;6.50;99.90;;;;;;5032222;28;20030;-55
2021/03/10 00:02:26;;;;;;;23.35;17.63;;;;;;;;;;5031209;28;20061;-59
2021/03/10 00:04:52;;;;;;;26.13;19.38;;;6.70;99.90;;;;;;5032465;28;20578;-58
2021/03/10 00:07:18;;;;;;;25.65;16.92;;;6.80;99.90;;;;;;5031577;28;20132;-67
2021/03/10 00:09:44;;;;;;;21.95;16.60;;;6.70;99.90;;;;;;5032211;28;20040;-59
2021/03/10 00:12:10;;;;;;;21.48;17.27;;;6.40;99.90;;;;;;5015421;28;20423;-57
2021/03/10 00:14:36;;;;;;;25.98;18.20;;;6.40;99.90;;;;;;5032166;28;20037;-52
2021/03/10 00:17:01;;;;;;;23.83;17.80;;;6.50;99.90;;;;;;5015512;28;20033;-65
2021/03/10 00:19:27;;;;;;;23.33;17.85;;;6.40;99.90;;;;;;4998840;28;20405;-53
2021/03/10 00:21:53;;;;;;;23.45;17.30;;;6.60;99.90;;;;;;5031936;28;20041;-55
2021/03/10 00:24:19;;;;;;;22.17;17.17;;;6.50;99.90;;;;;;4998939;28;20037;-49
2021/03/10 00:26:44;;;;;;;22.55;17.15;;;6.40;99.90;;;;;;5031718;28;20036;-61
2021/03/10 00:29:11;;;;;;;21.48;15.95;;;6.40;99.90;;;;;;5040905;28;20036;-53
2021/03/10 00:31:37;;;;;;;22.65;17.08;;;6.30;99.90;;;;;;5038180;28;20028;-57
2021/03/10 00:34:03;;;;;;;25.98;17.80;;;6.40;99.90;;;;;;5074130;28;20024;-56
2021/03/10 00:36:29;;;;;;;23.35;17.75;;;6.40;99.90;;;;;;5072787;28;20043;-59
2021/03/10 00:38:54;;;;;;;22.83;17.30;;;6.40;99.90;;;;;;5072102;28;20040;-56
2021/03/10 00:41:20;;;;;;;23.77;18.38;;;6.60;99.90;;;;;;5074254;28;20025;-63
2021/03/10 00:43:46;;;;;;;23.10;17.30;;;6.60;99.90;;;;;;5085395;28;20089;-57
2021/03/10 00:46:12;;;;;;;22.48;17.00;;;6.50;99.90;;;;;;5082959;28;20064;-59
2021/03/10 00:48:37;;;;;;;23.65;17.08;;;6.50;99.90;;;;;;5092818;28;20089;-59
2021/03/10 00:51:03;;;;;;;22.17;16.00;;;6.50;99.90;;;;;;5094041;28;20126;-58
2021/03/10 00:53:29;;;;;;;20.02;15.95;;;6.40;99.90;;;;;;5078064;28;20441;-60
2021/03/10 00:55:55;;;;;;;23.67;17.15;;;6.50;99.90;;;;;;5093537;28;20095;-59
2021/03/10 00:58:21;;;;;;;22.98;16.45;;;6.50;99.90;;;;;;5093975;28;20102;-64
2021/03/10 01:00:46;;;;;;;23.50;16.75;;;6.50;99.90;;;;;;5083154;28;20077;-64
2021/03/10 01:03:12;;;;;;;24.25;18.00;;;6.50;99.90;;;;;;5073779;28;20037;-51
2021/03/10 01:05:38;;;;;;;23.27;16.70;;;6.70;99.90;;;;;;5073532;28;20032;-55
2021/03/10 01:08:04;;;;;;;25.42;17.85;;;6.90;99.90;;;;;;5037670;28;20048;-53
2021/03/10 01:10:30;;;;;;;25.48;18.13;;;7.00;99.90;;;;;;5083319;28;20024;-55
2021/03/10 01:12:55;;;;;;;25.05;18.60;;;7.10;99.90;;;;;;4994550;28;20475;-57
2021/03/10 01:15:22;;;;;;;24.02;18.40;;;7.20;99.90;;;;;;5097036;28;20031;-52
2021/03/10 01:17:48;;;;;;;26.75;20.92;;;7.10;99.90;;;;;;5077848;28;20034;-61
2021/03/10 01:20:19;;;;;;;25.10;18.90;;;6.80;99.90;;;;;;5075452;28;20032;-59
2021/03/10 01:22:46;;;;;;;23.25;18.88;;;6.50;99.90;;;;;;5077067;28;20047;-54
2021/03/10 01:25:14;;;;;;;24.33;17.88;;;6.40;99.90;;;;;;5083076;28;20070;-55
2021/03/10 01:27:42;;;;;;;25.20;17.67;;;6.00;99.90;;;;;;5097735;28;20052;-63
2021/03/10 01:30:10;;;;;;;26.23;18.58;;;5.80;99.90;;;;;;5112527;28;20071;-58
2021/03/10 01:32:36;;;;;;;25.13;18.88;;;5.80;99.90;;;;;;5095693;28;20042;-55
2021/03/10 01:35:04;;;;;;;27.55;19.42;;;5.90;99.90;;;;;;5095266;28;20040;-55
2021/03/10 01:37:30;;;;;;;32.22;20.38;;;6.00;99.90;;;;;;5028147;28;20036;-59
2021/03/10 01:39:56;;;;;;;26.98;19.70;;;6.10;99.90;;;;;;5061650;28;20495;-64
2021/03/10 01:42:23;;;;;;;30.15;21.00;;;5.90;99.90;;;;;;5087400;28;20036;-63
2021/03/10 01:44:49;;;;;;;26.25;19.65;;;5.90;99.90;;;;;;5087845;28;20039;-53
2021/03/10 01:47:16;;;;;;;26.52;19.92;;;5.90;99.90;;;;;;5076973;28;20541;-52
2021/03/10 01:49:42;;;;;;;29.08;20.10;;;6.00;99.90;;;;;;5077280;28;20069;-54
2021/03/10 01:52:08;;;;;;;29.05;20.63;;;5.70;99.90;;;;;;5076793;28;20048;-59
2021/03/10 01:54:35;;;;;;;27.58;21.77;;;5.60;99.90;;;;;;5041843;28;20033;-61
2021/03/10 01:57:02;;;;;;;28.05;20.75;;;5.60;99.90;;;;;;5077002;28;20048;-61
2021/03/10 01:59:27;;;;;;;29.75;21.25;;;5.70;99.90;;;;;;5076474;28;20029;-55
2021/03/10 02:01:53;;;;;;;30.65;21.83;;;5.90;99.90;;;;;;5058201;28;20044;-61
2021/03/10 02:04:19;;;;;;;29.30;22.17;;;5.80;99.90;;;;;;5058242;28;20040;-57
2021/03/10 02:07:24;;;;;;;28.67;21.83;;;5.60;99.90;;;;;;5076442;28;20104;-52
2021/03/10 02:10:02;;;;;;;25.67;20.50;;;5.50;99.90;;;;;;5076108;28;20127;-61
2021/03/10 02:12:53;;;;;;;28.52;21.45;;;5.80;99.90;;;;;;5076649;28;20024;-56
2021/03/10 02:15:27;;;;;;;40.75;26.58;;;6.00;99.90;;;;;;5076744;28;20059;-55
2021/03/10 02:18:01;;;;;;;31.83;23.05;;;6.30;99.90;;;;;;5074551;28;20106;-61
2021/03/10 02:20:37;;;;;;;31.83;23.30;;;6.50;99.90;;;;;;5040417;28;20036;-51
2021/03/10 02:23:46;;;;;;;30.33;22.92;;;6.50;99.90;;;;;;5074278;28;20045;-66
2021/03/10 02:26:31;;;;;;;29.77;21.98;;;6.60;99.90;;;;;;5013626;28;20029;-62
2021/03/10 02:29:04;;;;;;;31.65;23.85;;;6.60;99.90;;;;;;5014219;28;20121;-64
2021/03/10 02:31:33;;;;;;;31.35;22.73;;;6.70;99.90;;;;;;4981685;28;20040;-58
2021/03/10 02:34:01;;;;;;;30.77;22.90;;;6.90;99.90;;;;;;5014034;28;20436;-60
2021/03/10 02:36:28;;;;;;;29.92;22.23;;;7.00;99.90;;;;;;4997396;28;20459;-49
2021/03/10 02:38:55;;;;;;;30.55;22.63;;;7.00;99.90;;;;;;5013815;28;20025;-67
2021/03/10 02:41:22;;;;;;;33.83;23.63;;;7.00;99.90;;;;;;4997383;28;20048;-57
2021/03/10 02:43:50;;;;;;;33.05;23.58;;;6.90;99.90;;;;;;5027702;28;20079;-60
2021/03/10 02:46:18;;;;;;;32.15;22.65;;;6.90;99.90;;;;;;5033368;28;20468;-61
2021/03/10 02:48:45;;;;;;;33.25;25.45;;;6.90;99.90;;;;;;5033503;28;20117;-56
2021/03/10 02:51:15;;;;;;;31.02;23.98;;;6.80;99.90;;;;;;5016610;28;20045;-62
2021/03/10 02:53:42;;;;;;;31.92;22.73;;;6.80;99.90;;;;;;5034697;28;20052;-54
2021/03/10 02:56:11;;;;;;;30.23;21.80;;;6.80;99.90;;;;;;5016460;28;20489;-59
2021/03/10 02:58:41;;;;;;;28.15;22.25;;;6.70;99.90;;;;;;5033366;28;20029;-57
2021/03/10 03:01:08;;;;;;;32.30;24.33;;;6.70;99.90;;;;;;5048516;28;20520;-56
2021/03/10 03:03:33;;;;;;;29.58;22.27;;;6.60;99.90;;;;;;5003700;28;20151;-57
2021/03/10 03:05:59;;;;;;;28.85;22.02;;;6.50;99.90;;;;;;5052615;28;20551;-53
2021/03/10 03:08:25;;;;;;;29.25;21.27;;;6.50;99.90;;;;;;5036295;28;20037;-58
2021/03/10 03:10:53;;;;;;;28.48;19.77;;;6.30;99.90;;;;;;5053319;28;20025;-51
2021/03/10 03:13:20;;;;;;;31.48;20.52;;;6.10;99.90;;;;;;5036052;28;20036;-57
2021/03/10 03:15:53;;;;;;;26.40;18.80;;;6.20;99.90;;;;;;5019730;28;20067;-57
2021/03/10 03:18:21;;;;;;;27.20;18.27;;;6.20;99.90;;;;;;5052413;28;20435;-55
2021/03/10 03:20:48;;;;;;;29.55;20.45;;;6.20;99.90;;;;;;5052607;28;20116;-63
2021/03/10 03:23:17;;;;;;;29.95;20.83;;;6.20;99.90;;;;;;5052830;28;20131;-57
2021/03/10 03:25:43;;;;;;;39.90;25.00;;;6.20;99.90;;;;;;5052748;28;20051;-56
2021/03/10 03:28:14;;;;;;;38.83;22.60;;;6.20;99.90;;;;;;5052409;28;20025;-61
2021/03/10 03:30:41;;;;;;;39.42;23.83;;;6.20;99.90;;;;;;5053146;28;20029;-60
2021/03/10 03:33:10;;;;;;;34.35;22.98;;;6.20;99.90;;;;;;5052285;28;20048;-54
2021/03/10 03:35:37;;;;;;;30.75;19.15;;;6.10;99.90;;;;;;5052615;28;20060;-61
2021/03/10 03:38:04;;;;;;;26.08;16.92;;;6.10;99.90;;;;;;5043841;28;20036;-62
2021/03/10 03:40:31;;;;;;;26.48;18.52;;;6.10;99.90;;;;;;5055994;28;20064;-52
2021/03/10 03:42:56;;;;;;;28.05;18.40;;;6.00;99.90;;;;;;5055494;28;20037;-54
2021/03/10 03:45:22;;;;;;;29.52;20.00;;;6.00;99.90;;;;;;5006628;28;20546;-62
2021/03/10 03:47:53;;;;;;;30.67;19.73;;;6.00;99.90;;;;;;5002904;28;20353;-59
2021/03/10 03:50:19;;;;;;;28.92;19.35;;;6.10;99.90;;;;;;5052057;28;20033;-51
2021/03/10 03:52:45;;;;;;;32.38;21.98;;;6.10;99.90;;;;;;5052504;28;20068;-59
2021/03/10 03:55:12;;;;;;;31.63;21.52;;;6.20;99.90;;;;;;5002525;28;20072;-63
2021/03/10 03:57:38;;;;;;;40.42;25.23;;;6.30;99.90;;;;;;5051447;28;20041;-55
2021/03/10 04:00:10;;;;;;;35.78;23.90;;;6.40;99.90;;;;;;5051993;28;20064;-56
2021/03/10 04:02:36;;;;;;;34.20;23.15;;;6.40;99.90;;;;;;5018925;28;20628;-65
2021/03/10 04:05:02;;;;;;;33.35;22.17;;;6.40;99.90;;;;;;5018864;28;20033;-56
2021/03/10 04:07:28;;;;;;;34.60;23.40;;;6.50;99.90;;;;;;5018682;28;20041;-61
2021/03/10 04:09:54;;;;;;;33.83;24.33;;;6.40;99.90;;;;;;5068705;28;20133;-63
2021/03/10 04:12:20;;;;;;;42.70;28.27;;;6.50;99.90;;;;;;5071305;28;20032;-57
2021/03/10 04:14:46;;;;;;;38.75;26.27;;;6.60;99.90;;;;;;5072159;28;20051;-58
2021/03/10 04:17:11;;;;;;;35.53;24.08;;;6.60;99.90;;;;;;5022120;28;20119;-55
2021/03/10 04:19:37;;;;;;;30.85;22.08;;;6.80;99.90;;;;;;5022402;28;20041;-59
2021/03/10 04:22:03;;;;;;;29.25;22.25;;;6.90;99.90;;;;;;5105934;28;20052;-63
2021/03/10 04:24:29;;;;;;;32.28;21.90;;;6.90;99.90;;;;;;5071643;28;20562;-49
2021/03/10 04:26:55;;;;;;;33.67;22.38;;;6.90;99.90;;;;;;5073737;28;20048;-54
2021/03/10 04:29:20;;;;;;;27.58;21.65;;;6.60;99.90;;;;;;5105584;28;20039;-55
2021/03/10 04:31:46;;;;;;;27.80;20.98;;;6.60;99.90;;;;;;5073753;28;20533;-57
2021/03/10 04:34:12;;;;;;;31.15;21.90;;;6.70;99.90;;;;;;5073411;28;20024;-57
2021/03/10 04:36:37;;;;;;;26.88;20.75;;;6.70;99.90;;;;;;5073573;28;20415;-55
2021/03/10 04:39:04;;;;;;;23.55;18.83;;;6.80;99.90;;;;;;5071710;28;20032;-54
2021/03/10 04:41:30;;;;;;;26.67;18.70;;;6.70;99.90;;;;;;5073088;28;20114;-50
2021/03/10 04:43:55;;;;;;;25.88;18.10;;;6.60;99.90;;;;;;5085497;28;20483;-66
2021/03/10 04:46:21;;;;;;;24.80;19.10;;;6.40;99.90;;;;;;5089790;28;20032;-56
2021/03/10 04:48:47;;;;;;;24.33;19.13;;;6.40;99.90;;;;;;5074523;28;20032;-61
2021/03/10 04:51:13;;;;;;;25.33;19.08;;;6.40;99.90;;;;;;5073597;28;20135;-52
2021/03/10 04:53:39;;;;;;;22.20;17.83;;;6.50;99.90;;;;;;5061417;28;20078;-58
2021/03/10 04:56:05;;;;;;;24.55;18.00;;;6.60;99.90;;;;;;5093332;28;20115;-58
2021/03/10 04:58:30;;;;;;;25.38;18.55;;;6.50;99.90;;;;;;5081305;28;20032;-53
2021/03/10 05:00:56;;;;;;;22.80;17.63;;;6.30;99.90;;;;;;5054683;28;20357;-60
2021/03/10 05:03:22;;;;;;;24.30;18.15;;;6.40;99.90;;;;;;5079288;28;20541;-51
2021/03/10 05:05:47;;;;;;;23.40;18.20;;;6.20;99.90;;;;;;5049660;28;20036;-59
2021/03/10 05:08:13;;;;;;;23.73;17.75;;;6.30;99.90;;;;;;5091786;28;20024;-56
2021/03/10 05:10:39;;;;;;;21.10;17.23;;;6.30;99.90;;;;;;5054415;28;20633;-57
2021/03/10 05:13:05;;;;;;;24.95;18.83;;;6.30;99.90;;;;;;5073283;28;20021;-59
2021/03/10 05:15:30;;;;;;;24.20;18.23;;;6.50;99.90;;;;;;5090577;28;20113;-61
2021/03/10 05:17:56;;;;;;;23.55;18.02;;;6.70;99.90;;;;;;5074201;28;20036;-64
2021/03/10 05:20:22;;;;;;;24.67;17.50;;;6.70;99.90;;;;;;5093271;28;20372;-61
2021/03/10 05:22:48;;;;;;;27.63;17.27;;;6.70;99.90;;;;;;5091249;28;20044;-58
2021/03/10 05:25:14;;;;;;;22.13;16.23;;;6.70;99.90;;;;;;5076713;28;20504;-53
2021/03/10 05:27:40;;;;;;;18.38;14.38;;;6.60;99.90;;;;;;5071974;28;20020;-57
2021/03/10 05:30:08;;;;;;;19.80;14.38;;;5.90;99.90;;;;;;5073503;28;20083;-56
2021/03/10 05:32:34;;;;;;;19.88;14.77;;;5.30;99.90;;;;;;5083835;28;20044;-57
2021/03/10 05:35:00;;;;;;;19.80;15.20;;;5.10;99.90;;;;;;5078910;28;20041;-50
2021/03/10 05:37:26;;;;;;;21.95;16.40;;;4.90;99.90;;;;;;5033533;28;20040;-64
2021/03/10 05:39:52;;;;;;;29.45;16.35;;;4.70;99.90;;;;;;5050997;28;20586;-61
2021/03/10 05:42:18;;;;;;;23.58;15.93;;;4.70;99.90;;;;;;5046142;28;20188;-59
2021/03/10 05:44:44;;;;;;;22.90;16.08;;;4.70;99.90;;;;;;5032040;28;20030;-54
2021/03/10 05:47:09;;;;;;;20.45;15.07;;;4.50;99.90;;;;;;5042812;28;20053;-53
2021/03/10 05:49:35;;;;;;;29.85;20.08;;;4.50;99.90;;;;;;4997991;28;20071;-46
2021/03/10 05:52:05;;;;;;;30.33;23.55;;;4.70;99.90;;;;;;5031192;28;20042;-65
2021/03/10 05:54:31;;;;;;;21.30;17.00;;;5.20;99.90;;;;;;5033909;28;20075;-51
2021/03/10 05:57:00;;;;;;;20.80;17.38;;;5.50;99.90;;;;;;5038769;28;20501;-55
2021/03/10 05:59:29;;;;;;;20.35;16.23;;;5.70;99.90;;;;;;5050146;28;20071;-59
2021/03/10 06:01:55;;;;;;;22.65;16.63;;;5.90;99.90;;;;;;5021541;28;20481;-51
2021/03/10 06:04:23;;;;;;;20.30;14.82;;;5.80;99.90;;;;;;5038318;28;20178;-54
2021/03/10 06:06:50;;;;;;;20.50;14.68;;;5.70;99.90;;;;;;5040555;28;20024;-55
2021/03/10 06:09:20;;;;;;;23.45;16.80;;;5.60;99.90;;;;;;5091602;28;20437;-57
2021/03/10 06:12:03;;;;;;;22.85;17.58;;;5.30;99.90;;;;;;5097328;28;20407;-57
2021/03/10 06:14:30;;;;;;;20.98;16.83;;;5.00;99.90;;;;;;5061613;28;20028;-58
2021/03/10 06:17:10;;;;;;;27.13;17.80;;;5.30;99.90;;;;;;5093904;28;20201;-58
2021/03/10 06:19:49;;;;;;;22.35;16.23;;;5.10;99.90;;;;;;5060473;28;20032;-48
2021/03/10 06:22:16;;;;;;;19.02;15.52;;;5.10;99.90;;;;;;5094717;28;20120;-57
2021/03/10 06:24:42;;;;;;;17.77;15.48;;;4.90;99.90;;;;;;5094313;28;20032;-61
2021/03/10 06:27:08;;;;;;;18.73;14.40;;;4.90;99.90;;;;;;5094525;28;20028;-53
2021/03/10 06:29:35;;;;;;;19.48;15.70;;;4.80;99.90;;;;;;5077715;28;20514;-58
2021/03/10 06:32:10;;;;;;;20.27;16.13;;;4.70;99.90;;;;;;5093793;28;20036;-59
2021/03/10 06:34:49;;;;;;;24.25;15.10;;;5.00;99.90;;;;;;5093824;28;20028;-50
2021/03/10 06:37:30;;;;;;;17.67;14.05;;;5.00;99.90;;;;;;5094444;28;20043;-61
2021/03/10 06:40:13;;;;;;;19.77;14.32;;;4.80;99.90;;;;;;5094203;28;20070;-56
2021/03/10 06:42:40;;;;;;;24.48;18.90;;;5.10;99.90;;;;;;5060195;28;20040;-58
2021/03/10 06:45:08;;;;;;;22.35;15.98;;;5.10;99.90;;;;;;5091697;28;20691;-58
2021/03/10 06:47:39;;;;;;;20.05;15.45;;;5.10;99.90;;;;;;5094606;28;20092;-66
2021/03/10 06:50:06;;;;;;;18.55;14.68;;;5.20;99.90;;;;;;5095788;28;20158;-55
2021/03/10 06:52:32;;;;;;;19.00;15.43;;;5.10;99.90;;;;;;5093840;28;20076;-51
2021/03/10 06:55:00;;;;;;;22.08;16.52;;;5.50;99.90;;;;;;5076289;28;20155;-56
2021/03/10 06:57:27;;;;;;;20.52;17.38;;;5.80;99.90;;;;;;5093773;28;20043;-56
2021/03/10 06:59:54;;;;;;;21.42;17.50;;;6.10;99.90;;;;;;5094177;28;20079;-54
2021/03/10 07:02:28;;;;;;;24.70;18.45;;;6.30;99.90;;;;;;5076035;28;20117;-56
2021/03/10 07:04:59;;;;;;;28.10;20.60;;;6.50;99.90;;;;;;5076725;28;20056;-57
2021/03/10 07:07:27;;;;;;;22.55;17.58;;;6.60;99.90;;;;;;5093690;28;20032;-52
2021/03/10 07:09:53;;;;;;;23.33;19.02;;;6.10;99.90;;;;;;5076729;28;20024;-55
2021/03/10 07:12:23;;;;;;;23.25;19.02;;;6.50;99.90;;;;;;5093015;28;20138;-54
2021/03/10 07:14:49;;;;;;;21.55;16.52;;;6.60;99.90;;;;;;5093595;28;20024;-59
2021/03/10 07:17:18;;;;;;;25.42;17.23;;;6.40;99.90;;;;;;5092660;28;20039;-51
2021/03/10 07:19:45;;;;;;;21.30;17.13;;;6.40;99.90;;;;;;5059746;28;20036;-55
2021/03/10 07:22:16;;;;;;;21.73;16.55;;;6.30;99.90;;;;;;5059570;28;20040;-51
2021/03/10 07:24:53;;;;;;;32.28;24.40;;;6.60;99.90;;;;;;5095349;28;20047;-58
2021/03/10 07:27:20;;;;;;;24.88;19.48;;;6.90;99.90;;;;;;5095232;28;20348;-59
2021/03/10 07:29:46;;;;;;;28.15;20.80;;;7.20;99.90;;;;;;5059348;28;20123;-49
2021/03/10 07:32:22;;;;;;;36.22;25.13;;;7.40;99.90;;;;;;5094870;28;20103;-58
2021/03/10 07:34:58;;;;;;;25.67;19.80;;;7.40;99.90;;;;;;5095031;28;20024;-52
2021/03/10 07:37:24;;;;;;;22.70;17.52;;;7.50;99.90;;;;;;5095028;28;20028;-60
2021/03/10 07:39:50;;;;;;;26.17;18.23;;;7.60;99.90;;;;;;5094701;28;20032;-51
2021/03/10 07:42:17;;;;;;;24.02;18.13;;;;;;;;;;5094730;28;20486;-63
2021/03/10 07:44:55;;;;;;;23.73;17.90;;;10.50;99.90;;;;;;5094453;28;20024;-51
2021/03/10 07:47:23;;;;;;;23.45;17.92;;;7.90;99.90;;;;;;5094414;28;20028;-53
2021/03/10 07:50:02;;;;;;;32.92;21.38;;;7.90;99.90;;;;;;5094666;28;20038;-55
2021/03/10 07:52:29;;;;;;;24.98;19.88;;;8.20;99.90;;;;;;5092088;28;20090;-52
2021/03/10 07:55:00;;;;;;;27.20;20.23;;;8.00;99.90;;;;;;5091926;28;20036;-50
2021/03/10 07:57:27;;;;;;;50.42;32.05;;;8.00;99.90;;;;;;5092271;28;20040;-60
2021/03/10 08:00:07;;;;;;;28.63;21.02;;;;;;;;;;5058317;28;20146;-59
2021/03/10 08:02:44;;;;;;;27.45;20.45;;;8.30;99.90;;;;;;5059047;28;20044;-56
2021/03/10 08:05:20;;;;;;;27.58;20.52;;;;;;;;;;5058445;28;20032;-51
2021/03/10 08:07:46;;;;;;;30.85;22.17;;;8.50;99.90;;;;;;5091655;28;20036;-64
2021/03/10 08:10:12;;;;;;;33.75;24.92;;;8.50;99.90;;;;;;5092065;28;20111;-58
2021/03/10 08:12:40;;;;;;;31.42;23.80;;;8.20;99.90;;;;;;5091658;28;20040;-57
2021/03/10 08:15:07;;;;;;;30.20;23.08;;;8.20;99.90;;;;;;5091802;28;20035;-54
2021/03/10 08:17:33;;;;;;;37.03;25.83;;;8.30;99.90;;;;;;5091911;28;20131;-66
2021/03/10 08:20:01;;;;;;;35.30;26.70;;;8.30;99.90;;;;;;5091704;28;20020;-49
2021/03/10 08:22:28;;;;;;;36.40;27.23;;;8.50;99.90;;;;;;5091800;28;20054;-55
2021/03/10 08:24:59;;;;;;;34.20;26.20;;;8.50;99.90;;;;;;5093310;28;20032;-48
2021/03/10 08:27:31;;;;;;;44.05;31.65;;;;;;;;;;5093893;28;20051;-52
2021/03/10 08:29:57;;;;;;;;;;;8.50;99.90;;;;;;5094218;28;20028;-51
2021/03/10 08:32:28;;;;;;;42.35;29.52;;;8.40;99.90;;;;;;5093763;28;19904;-51
2021/03/10 08:34:59;;;;;;;35.50;26.55;;;8.40;99.90;;;;;;5093677;28;20039;-47
2021/03/10 08:37:26;;;;;;;36.03;26.05;;;8.50;99.90;;;;;;5093595;28;20074;-54
2021/03/10 08:39:51;;;;;;;34.13;26.17;;;8.30;99.90;;;;;;5093799;28;20370;-53
2021/03/10 08:42:21;;;;;;;32.03;26.15;;;8.40;99.90;;;;;;5093651;28;20032;-50
2021/03/10 08:44:48;;;;;;;33.17;27.73;;;8.40;99.90;;;;;;5092209;28;20051;-53
2021/03/10 08:47:24;;;;;;;38.97;30.25;;;8.30;99.90;;;;;;5108821;28;20119;-55
2021/03/10 08:49:52;;;;;;;41.08;32.38;;;8.30;99.90;;;;;;5093477;28;20068;-52
2021/03/10 08:52:18;;;;;;;38.88;30.30;;;8.20;99.90;;;;;;5093161;28;20086;-49
2021/03/10 08:55:03;;;;;;;37.85;28.75;;;8.30;99.90;;;;;;5074318;28;20052;-49
2021/03/10 08:57:36;;;;;;;41.42;30.35;;;8.50;99.90;;;;;;5074066;28;20493;-51
2021/03/10 09:00:13;;;;;;;46.15;33.55;;;8.40;99.90;;;;;;5093174;28;20024;-53
2021/03/10 09:02:40;;;;;;;41.45;33.33;;;8.50;99.90;;;;;;5091331;28;20079;-51
2021/03/10 09:05:07;;;;;;;37.17;30.50;;;8.60;99.90;;;;;;5091403;28;20464;-50
2021/03/10 09:07:34;;;;;;;38.38;30.08;;;8.70;99.90;;;;;;5091074;28;20375;-52
2021/03/10 09:10:08;;;;;;;36.45;30.42;;;8.90;99.90;;;;;;5093317;28;20058;-49
2021/03/10 09:12:42;;;;;;;36.58;28.10;;;8.90;99.90;;;;;;5091441;28;20062;-52
2021/03/10 09:15:12;;;;;;;38.25;30.63;;;8.80;99.90;;;;;;5107977;28;20036;-51
2021/03/10 09:17:38;;;;;;;32.65;26.80;;;8.80;99.90;;;;;;5108253;28;20039;-51
2021/03/10 09:20:06;;;;;;;39.60;32.58;;;9.10;99.90;;;;;;5091236;28;20047;-50
2021/03/10 09:22:41;;;;;;;38.88;30.02;;;8.70;99.90;;;;;;5090911;28;20395;-50
2021/03/10 09:25:10;;;;;;;39.38;30.92;;;8.90;99.90;;;;;;5092172;28;20032;-54
2021/03/10 09:27:36;;;;;;;40.60;33.25;;;8.90;99.90;;;;;;5093058;28;20483;-52
2021/03/10 09:30:08;;;;;;;40.95;33.70;;;8.90;99.90;;;;;;5093113;28;20028;-53
2021/03/10 09:32:38;;;;;;;;;;;9.00;99.90;;;;;;5093621;28;20099;-52
2021/03/10 09:35:20;;;;;;;43.35;32.88;;;9.20;99.90;;;;;;5093130;28;19904;-50
2021/03/10 09:37:53;;;;;;;40.95;31.35;;;9.20;99.90;;;;;;5097188;28;20028;-51
2021/03/10 09:40:22;;;;;;;42.72;33.20;;;9.00;99.90;;;;;;5095778;28;20027;-53
2021/03/10 09:43:04;;;;;;;37.53;32.35;;;9.30;99.90;;;;;;5096861;28;20036;-51
2021/03/10 09:45:32;;;;;;;39.95;32.15;;;9.40;99.90;;;;;;5097130;28;20019;-50
2021/03/10 09:47:58;;;;;;;39.40;32.20;;;9.50;99.90;;;;;;5111882;28;20028;-47
2021/03/10 09:50:30;;;;;;;38.13;31.42;;;9.60;99.90;;;;;;5096884;28;20039;-50
2021/03/10 09:52:57;;;;;;;43.78;32.33;;;9.60;99.90;;;;;;5076325;28;20051;-53
2021/03/10 09:55:24;;;;;;;40.92;31.70;;;9.40;99.90;;;;;;5094391;28;20359;-49
2021/03/10 09:58:01;;;;;;;39.22;31.92;;;9.60;99.90;;;;;;5094467;28;20028;-50
2021/03/10 10:00:27;;;;;;;67.55;40.55;;;9.40;99.90;;;;;;5094078;28;20039;-52
2021/03/10 10:02:53;;;;;;;35.33;29.85;;;9.30;99.90;;;;;;5060782;28;20044;-51
2021/03/10 10:05:30;;;;;;;39.33;30.08;;;9.60;99.90;;;;;;5094443;28;20036;-53
2021/03/10 10:07:57;;;;;;;41.00;31.08;;;9.80;99.90;;;;;;5093947;28;20040;-54
2021/03/10 10:10:24;;;;;;;35.95;27.83;;;9.80;99.90;;;;;;5094371;28;20383;-50
2021/03/10 10:12:52;;;;;;;39.75;27.55;;;10.00;99.90;;;;;;5060405;28;20043;-49
2021/03/10 10:15:20;;;;;;;33.67;27.88;;;10.20;99.90;;;;;;5093889;28;20494;-52
2021/03/10 10:17:48;;;;;;;63.15;36.40;;;10.10;99.90;;;;;;5060369;28;20032;-52
2021/03/10 10:20:16;;;;;;;34.38;26.60;;;10.20;99.90;;;;;;5094168;28;20024;-51
2021/03/10 10:22:42;;;;;;;50.15;30.83;;;9.90;99.90;;;;;;5093718;28;20140;-49
2021/03/10 10:25:08;;;;;;;28.63;23.17;;;9.40;99.90;;;;;;5095148;28;20435;-52
2021/03/10 10:27:34;;;;;;;27.58;23.95;;;9.20;99.90;;;;;;5060706;28;20086;-50
2021/03/10 10:30:01;;;;;;;28.98;24.23;;;9.50;99.90;;;;;;5095944;28;20054;-48
2021/03/10 10:32:26;;;;;;;27.25;23.33;;;9.60;99.90;;;;;;5094177;28;20075;-51
2021/03/10 10:34:54;;;;;;;28.60;24.67;;;9.60;99.90;;;;;;5096194;28;20059;-50
2021/03/10 10:37:20;;;;;;;25.90;21.50;;;9.90;99.90;;;;;;5093941;28;20113;-54
2021/03/10 10:39:46;;;;;;;58.97;33.83;;;10.00;99.90;;;;;;5096288;28;20115;-52
2021/03/10 10:42:12;;;;;;;24.95;22.35;;;10.30;99.90;;;;;;5110877;28;20379;-52
2021/03/10 10:44:38;;;;;;;24.65;21.60;;;10.80;99.90;;;;;;5093720;28;20044;-48
2021/03/10 10:47:04;;;;;;;27.33;22.15;;;11.60;99.90;;;;;;5110159;28;20036;-47
2021/03/10 10:49:30;;;;;;;23.27;20.77;;;11.90;99.90;;;;;;5096004;28;20024;-49
2021/03/10 10:51:56;;;;;;;24.10;19.98;;;;;;;;;;5093433;28;20480;-53
2021/03/10 10:54:22;;;;;;;34.25;25.60;;;12.80;99.90;;;;;;5093868;28;20071;-56
2021/03/10 10:56:48;;;;;;;47.08;28.58;;;12.80;99.90;;;;;;5095972;28;20028;-50
2021/03/10 10:59:13;;;;;;;80.47;42.08;;;12.80;99.90;;;;;;5110487;28;20038;-52
2021/03/10 11:01:39;;;;;;;57.15;32.60;;;12.40;99.90;;;;;;5093776;28;20047;-53
2021/03/10 11:04:05;;;;;;;22.77;20.33;;;12.40;99.90;;;;;;5093520;28;20043;-56
2021/03/10 11:06:31;;;;;;;58.67;33.45;;;12.90;99.90;;;;;;5095346;28;20028;-48
2021/03/10 11:08:56;;;;;;;34.08;26.13;;;12.30;99.30;;;;;;5095732;28;20032;-49
2021/03/10 11:11:22;;;;;;;20.27;16.92;;;12.50;97.90;;;;;;5059515;28;20043;-53
2021/03/10 11:13:48;;;;;;;24.77;20.58;;;11.90;96.70;;;;;;5075924;28;20085;-54
2021/03/10 11:16:14;;;;;;;33.47;25.02;;;11.80;99.90;;;;;;5093447;28;20093;-53
2021/03/10 11:18:39;;;;;;;29.27;23.92;;;12.00;99.30;;;;;;5095585;28;20024;-52
2021/03/10 11:21:05;;;;;;;22.20;19.58;;;12.10;99.40;;;;;;5059364;28;20032;-52
2021/03/10 11:23:31;;;;;;;25.95;22.67;;;12.30;96.60;;;;;;5093377;28;20076;-52
2021/03/10 11:25:58;;;;;;;18.33;16.00;;;12.50;99.10;;;;;;5095268;28;20026;-50
2021/03/10 11:28:25;;;;;;;17.30;15.50;;;12.30;96.50;;;;;;5092693;28;20537;-50
2021/03/10 11:30:50;;;;;;;16.67;14.98;;;12.00;93.60;;;;;;5058835;28;20498;-53
2021/03/10 11:33:17;;;;;;;22.77;16.42;;;;;;;;;;5058394;28;20040;-49
2021/03/10 11:35:42;;;;;;;18.63;15.25;;;13.40;99.90;;;;;;5092641;28;20511;-56
2021/03/10 11:38:08;;;;;;;46.95;33.80;;;13.50;90.00;;;;;;5058985;28;20071;-55
2021/03/10 11:40:34;;;;;;;23.52;18.13;;;13.50;94.80;;;;;;5092855;28;20110;-50
2021/03/10 11:43:00;;;;;;;18.40;16.42;;;13.30;91.10;;;;;;5088309;28;20475;-51
2021/03/10 11:45:25;;;;;;;27.25;18.50;;;13.20;88.40;;;;;;5075006;28;20037;-48
2021/03/10 11:47:51;;;;;;;48.03;33.20;;;13.30;90.40;;;;;;5089141;28;20040;-48
2021/03/10 11:50:17;;;;;;;79.60;47.58;;;13.10;89.30;;;;;;5092049;28;20063;-51
2021/03/10 11:52:43;;;;;;;27.60;19.45;;;12.80;83.90;;;;;;5092350;28;20043;-51
2021/03/10 11:55:10;;;;;;;26.02;18.00;;;13.20;81.30;;;;;;5051769;28;20037;-53
2021/03/10 11:57:37;;;;;;;71.90;25.35;;;13.50;82.80;;;;;;5051905;28;20473;-51
2021/03/10 12:00:05;;;;;;;20.50;16.80;;;13.30;81.40;;;;;;5067188;28;20047;-47
2021/03/10 12:02:30;;;;;;;27.60;20.60;;;13.50;82.60;;;;;;5038502;28;20135;-53
2021/03/10 12:04:56;;;;;;;123.72;70.25;;;13.70;83.30;;;;;;5055014;28;20127;-53
2021/03/10 12:07:23;;;;;;;85.60;49.50;;;13.30;82.50;;;;;;5071504;28;20035;-47
2021/03/10 12:09:48;;;;;;;30.30;21.20;;;12.80;83.60;;;;;;5055326;28;20036;-53
2021/03/10 12:12:14;;;;;;;22.60;20.27;;;12.90;90.80;;;;;;5071482;28;20685;-49
2021/03/10 12:14:40;;;;;;;23.60;20.33;;;12.30;85.80;;;;;;5055056;28;20032;-49
2021/03/10 12:17:06;;;;;;;32.63;26.50;;;12.50;85.40;;;;;;5051637;28;20453;-54
2021/03/10 12:19:32;;;;;;;27.83;22.75;;;12.40;85.60;;;;;;5051179;28;20125;-53
2021/03/10 12:21:58;;;;;;;50.05;30.45;;;12.00;80.70;;;;;;5017547;28;20392;-52
2021/03/10 12:24:25;;;;;;;29.67;22.60;;;11.90;84.50;;;;;;5051169;28;20041;-53
2021/03/10 12:26:50;;;;;;;32.75;25.67;;;12.20;86.10;;;;;;5051043;28;20095;-55
2021/03/10 12:29:16;;;;;;;21.20;17.48;;;12.70;86.60;;;;;;5018094;28;20474;-49
2021/03/10 12:31:42;;;;;;;17.02;15.23;;;12.70;80.40;;;;;;5057218;28;20036;-52
2021/03/10 12:34:08;;;;;;;17.30;15.48;;;;;;;;;;5091450;28;20031;-53
2021/03/10 12:36:34;;;;;;;16.00;14.30;;;;;;;;;;5091542;28;20082;-53
2021/03/10 12:39:01;;;;;;;22.10;16.75;;;14.20;71.90;;;;;;5091782;28;20024;-49
2021/03/10 12:41:27;;;;;;;18.77;13.10;;;13.70;71.30;;;;;;5057226;28;20129;-54